Time;durP1;ratioP1;P1;durP2;ratioP2;P2;SDS_P1;SDS_P2;PMS_P1;PMS_P2;Temp;Humidity;BMP_temperature;BMP_pressure;BME280_temperature;BME280_humidity;BME280_pressure;Samples;Min_cycle;Max_cycle;Signal;HPM_P1;HPM_P2
2024/03/11 00:00:33;;;;;;;8.23;7.33;;;;;;;10.30;93.50;97126.81;4859234;29;42491;-73
2024/03/11 00:03:02;;;;;;;8.87;7.07;;;;;;;10.27;94.40;97137.66;4876011;29;39025;-74
2024/03/11 00:05:30;;;;;;;9.50;6.60;;;;;;;10.28;93.88;97141.97;4860198;29;42675;-74
2024/03/11 00:07:58;;;;;;;7.40;6.43;;;;;;;10.28;93.39;97146.44;4877129;29;43770;-75
2024/03/11 00:10:27;;;;;;;6.93;6.20;;;;;;;10.17;93.93;97128.84;4859849;29;41140;-74
2024/03/11 00:12:56;;;;;;;6.60;5.90;;;;;;;10.27;93.66;97153.53;4875804;29;40013;-74
2024/03/11 00:15:24;;;;;;;7.00;6.30;;;;;;;10.23;93.30;97144.22;4859703;29;43163;-74
2024/03/11 00:17:51;;;;;;;6.33;5.43;;;;;;;10.30;92.69;97153.25;4860061;29;41430;-75
2024/03/11 00:20:21;;;;;;;7.27;5.90;;;;;;;10.31;93.27;97151.47;4875400;29;42971;-74
2024/03/11 00:22:49;;;;;;;6.13;5.40;;;;;;;10.28;93.63;97149.91;4875773;29;39954;-74
2024/03/11 00:25:16;;;;;;;6.63;5.37;;;;;;;10.23;94.01;97160.09;4875330;29;41759;-75
2024/03/11 00:27:44;;;;;;;5.47;4.93;;;;;;;10.09;93.62;97147.19;4859934;29;43832;-75
2024/03/11 00:30:13;;;;;;;4.80;4.27;;;;;;;10.16;93.48;97173.94;4860225;29;42489;-76
2024/03/11 00:32:44;;;;;;;4.20;3.70;;;;;;;10.09;93.72;97163.06;4861000;29;40321;-74
2024/03/11 00:35:13;;;;;;;4.83;4.10;;;;;;;10.10;93.94;97167.38;4876207;29;40520;-74
2024/03/11 00:37:43;;;;;;;4.10;3.70;;;;;;;10.09;93.62;97173.66;4860830;29;41878;-75
2024/03/11 00:40:11;;;;;;;3.57;3.27;;;;;;;10.04;93.43;97174.03;4877046;29;42323;-75
2024/03/11 00:42:39;;;;;;;3.87;3.47;;;;;;;9.99;92.86;97178.06;4860850;29;41315;-75
2024/03/11 00:45:09;;;;;;;3.00;2.80;;;;;;;9.94;93.28;97167.03;4876283;29;41803;-74
2024/03/11 00:47:39;;;;;;;3.40;3.10;;;;;;;9.87;93.01;97163.25;4876127;29;41711;-74
2024/03/11 00:50:09;;;;;;;4.07;3.03;;;;;;;9.92;93.15;97161.88;4860654;29;40605;-74
2024/03/11 00:52:37;;;;;;;3.03;2.73;;;;;;;9.94;93.00;97175.81;4876326;29;40985;-74
2024/03/11 00:55:07;;;;;;;3.10;2.90;;;;;;;9.90;92.75;97173.56;4876046;29;42431;-75
2024/03/11 00:57:35;;;;;;;2.70;2.50;;;;;;;9.86;92.69;97172.16;4875733;29;43491;-75
2024/03/11 01:00:04;;;;;;;2.83;2.63;;;;;;;9.89;92.96;97187.78;4875446;29;41058;-74
2024/03/11 01:02:32;;;;;;;2.77;2.57;;;;;;;9.89;92.66;97190.41;4860386;29;39013;-75
2024/03/11 01:04:59;;;;;;;2.90;2.60;;;;;;;9.91;91.98;97193.72;4860289;29;42313;-75
2024/03/11 01:07:27;;;;;;;2.90;2.70;;;;;;;9.89;92.01;97193.06;4875660;29;43766;-74
2024/03/11 01:09:55;;;;;;;3.23;2.90;;;;;;;9.62;92.37;97153.97;4876021;29;43170;-74
2024/03/11 01:12:25;;;;;;;2.77;2.50;;;;;;;9.84;92.39;97185.50;4860422;29;39431;-74
2024/03/11 01:14:53;;;;;;;2.60;2.40;;;;;;;9.85;92.03;97192.47;4860402;29;41783;-74
2024/03/11 01:17:20;;;;;;;2.73;2.47;;;;;;;9.86;92.40;97193.31;4860123;29;41661;-74
2024/03/11 01:19:48;;;;;;;2.53;2.33;;;;;;;9.86;92.09;97193.31;4875737;29;43595;-74
2024/03/11 01:22:16;;;;;;;2.40;2.17;;;;;;;9.81;91.80;97184.94;4875768;29;41017;-74
2024/03/11 01:24:44;;;;;;;3.07;2.30;;;;;;;9.84;91.45;97187.31;4876847;29;41763;-75
2024/03/11 01:27:14;;;;;;;2.30;2.10;;;;;;;9.80;92.05;97188.53;4875839;29;43821;-75
2024/03/11 01:29:43;;;;;;;2.60;2.40;;;;;;;9.75;91.97;97193.41;4858953;29;41054;-75
2024/03/11 01:32:12;;;;;;;2.53;1.80;;;;;;;9.82;93.30;97213.03;4874545;29;40149;-75
2024/03/11 01:34:42;;;;;;;2.43;2.00;;;;;;;9.82;92.13;97218.31;4876003;29;41870;-74
2024/03/11 01:37:09;;;;;;;2.17;2.00;;;;;;;9.76;92.60;97219.72;4874885;29;43311;-74
2024/03/11 01:39:43;;;;;;;1.90;1.80;;;;;;;9.77;92.72;97224.00;4874762;29;42284;-74
2024/03/11 01:42:14;;;;;;;2.10;1.90;;;;;;;9.76;92.40;97225.00;4860050;29;39081;-74
2024/03/11 01:44:45;;;;;;;1.87;1.77;;;;;;;9.79;92.57;97224.72;4860320;29;40868;-73
2024/03/11 01:47:14;;;;;;;1.60;1.50;;;;;;;9.78;92.30;97232.75;4875157;29;42775;-75
2024/03/11 01:49:43;;;;;;;2.37;1.70;;;;;;;9.75;92.11;97228.59;4875372;29;42365;-75
2024/03/11 01:52:14;;;;;;;1.70;1.60;;;;;;;9.77;92.28;97223.19;4859787;29;40298;-74
2024/03/11 01:54:42;;;;;;;1.70;1.60;;;;;;;9.70;92.39;97221.06;4876463;29;41359;-75
2024/03/11 01:57:11;;;;;;;1.60;1.50;;;;;;;9.78;92.59;97227.47;4876211;29;42895;-73
2024/03/11 01:59:39;;;;;;;1.57;1.47;;;;;;;9.75;93.03;97227.75;4874076;29;43263;-74
2024/03/11 02:02:08;;;;;;;1.40;1.30;;;;;;;9.48;92.50;97184.22;4874049;29;40411;-74
2024/03/11 02:05:24;;;;;;;1.40;1.30;;;;;;;9.77;92.32;97236.41;4874422;29;43016;-76
2024/03/11 02:07:59;;;;;;;1.63;1.53;;;;;;;9.76;91.76;97232.91;4859089;29;41916;-75
2024/03/11 02:10:27;;;;;;;2.67;1.43;;;;;;;9.76;91.52;97240.84;4875393;29;43089;-74
2024/03/11 02:12:55;;;;;;;2.60;1.40;;;;;;;9.75;91.57;97243.63;4878752;29;41072;-74
2024/03/11 02:15:23;;;;;;;1.50;1.40;;;;;;;9.73;91.92;97238.47;4877390;29;42486;-75
2024/03/11 02:17:53;;;;;;;1.43;1.33;;;;;;;9.72;91.56;97240.28;4877390;29;41709;-75
2024/03/11 02:20:22;;;;;;;1.30;1.20;;;;;;;9.72;91.76;97253.47;4876657;29;43162;-74
2024/03/11 02:22:52;;;;;;;1.37;1.27;;;;;;;9.59;91.47;97241.44;4878808;29;40732;-75
2024/03/11 02:25:22;;;;;;;1.70;1.60;;;;;;;9.61;91.47;97250.91;4878362;29;41539;-75
2024/03/11 02:27:51;;;;;;;1.37;1.27;;;;;;;9.58;91.64;97248.50;4861733;29;41881;-75
2024/03/11 02:30:19;;;;;;;1.20;1.10;;;;;;;9.54;91.44;97243.59;4877379;29;43684;-74
2024/03/11 02:32:46;;;;;;;1.40;1.30;;;;;;;9.52;91.31;97243.72;4862681;29;41487;-75
2024/03/11 02:35:14;;;;;;;1.90;1.40;;;;;;;9.51;91.05;97247.38;4862377;29;43213;-74
2024/03/11 02:37:43;;;;;;;1.33;1.23;;;;;;;9.49;91.49;97254.59;4879316;29;42817;-74
2024/03/11 02:40:11;;;;;;;2.00;1.80;;;;;;;9.37;91.23;97229.19;4877822;29;43300;-76
2024/03/11 02:42:41;;;;;;;1.50;1.40;;;;;;;9.48;91.59;97252.91;4878222;29;39903;-79
2024/03/11 02:45:13;;;;;;;1.13;1.03;;;;;;;9.51;90.85;97247.38;4862155;29;40747;-75
2024/03/11 02:47:41;;;;;;;3.13;1.43;;;;;;;9.49;91.23;97248.47;4875163;29;43727;-75
2024/03/11 02:50:09;;;;;;;1.57;1.47;;;;;;;9.48;91.44;97247.63;4862491;29;44108;-74
2024/03/11 02:52:37;;;;;;;2.13;1.60;;;;;;;9.49;91.28;97256.38;4877353;29;40955;-74
2024/03/11 02:55:06;;;;;;;1.50;1.10;;;;;;;9.45;91.17;97247.88;4875978;29;41473;-75
2024/03/11 02:57:34;;;;;;;1.73;1.23;;;;;;;9.46;90.68;97254.84;4876541;29;42693;-75
2024/03/11 03:00:10;;;;;;;1.30;1.20;;;;;;;9.51;90.69;97252.66;4876966;29;43171;-75
2024/03/11 03:02:38;;;;;;;1.30;1.20;;;;;;;9.53;90.64;97260.44;4878394;29;43162;-74
2024/03/11 03:05:06;;;;;;;1.57;1.47;;;;;;;9.52;90.38;97258.78;4876594;29;42332;-75
2024/03/11 03:07:35;;;;;;;1.60;1.50;;;;;;;9.47;90.39;97245.94;4876650;29;42823;-75
2024/03/11 03:10:03;;;;;;;1.87;1.70;;;;;;;9.54;90.34;97251.53;4876296;29;42401;-75
2024/03/11 03:12:30;;;;;;;1.90;1.50;;;;;;;9.55;90.62;97264.63;4860868;29;41726;-74
2024/03/11 03:14:58;;;;;;;2.20;1.80;;;;;;;9.52;90.39;97269.34;4876677;29;39758;-75
2024/03/11 03:17:27;;;;;;;2.10;1.80;;;;;;;9.50;90.36;97272.13;4876225;29;44546;-74
2024/03/11 03:19:55;;;;;;;1.70;1.60;;;;;;;9.48;90.66;97275.84;4877773;29;42011;-75
2024/03/11 03:22:22;;;;;;;2.03;1.70;;;;;;;9.47;90.92;97272.38;4860362;29;40577;-75
2024/03/11 03:24:51;;;;;;;1.80;1.70;;;;;;;9.44;91.19;97275.25;4876357;29;41994;-75
2024/03/11 03:27:18;;;;;;;1.80;1.70;;;;;;;9.43;91.26;97268.28;4876255;29;42841;-74
2024/03/11 03:29:46;;;;;;;2.00;1.80;;;;;;;9.32;91.40;97252.50;4876638;29;40959;-74
2024/03/11 03:32:14;;;;;;;1.50;1.40;;;;;;;9.43;91.49;97270.09;4877116;29;39053;-74
2024/03/11 03:34:44;;;;;;;1.60;1.50;;;;;;;9.42;91.24;97269.25;4877055;29;42447;-75
2024/03/11 03:37:11;;;;;;;1.80;1.70;;;;;;;9.42;91.31;97274.53;4877011;29;43925;-74
2024/03/11 03:39:41;;;;;;;1.63;1.53;;;;;;;9.41;91.30;97278.13;4877060;29;43525;-75
2024/03/11 03:42:09;;;;;;;3.93;1.70;;;;;;;9.34;92.24;97271.69;4878357;29;39900;-74
2024/03/11 03:44:37;;;;;;;1.70;1.60;;;;;;;9.32;92.89;97273.63;4877065;29;41981;-74
2024/03/11 03:47:05;;;;;;;1.80;1.63;;;;;;;9.21;92.83;97260.47;4876183;29;41512;-75
2024/03/11 03:49:33;;;;;;;2.53;1.80;;;;;;;9.30;92.70;97278.19;4861380;29;42930;-75
2024/03/11 03:52:01;;;;;;;1.73;1.63;;;;;;;9.26;93.09;97279.44;4876868;29;39608;-74
2024/03/11 03:54:29;;;;;;;1.60;1.50;;;;;;;9.26;92.97;97284.72;4876975;29;41688;-75
2024/03/11 03:56:56;;;;;;;2.20;1.87;;;;;;;9.23;93.72;97287.59;4876152;29;43499;-73
2024/03/11 03:59:24;;;;;;;1.70;1.60;;;;;;;9.16;93.78;97283.75;4875848;29;41031;-73
2024/03/11 04:01:51;;;;;;;1.57;1.47;;;;;;;9.15;94.48;97304.06;4875531;29;41357;-75
2024/03/11 04:04:19;;;;;;;1.77;1.67;;;;;;;9.14;94.45;97296.28;4876007;29;41849;-73
2024/03/11 04:06:47;;;;;;;1.67;1.40;;;;;;;9.13;94.70;97294.59;4875785;29;42431;-75
2024/03/11 04:09:16;;;;;;;1.63;1.53;;;;;;;9.14;94.38;97307.69;4875539;29;43699;-74
2024/03/11 04:11:45;;;;;;;2.57;1.60;;;;;;;9.04;94.68;97296.16;4875952;29;40737;-76
2024/03/11 04:14:12;;;;;;;1.43;1.33;;;;;;;9.09;95.30;97303.72;4860406;29;41144;-74
2024/03/11 04:16:40;;;;;;;1.43;1.33;;;;;;;8.99;95.67;97304.47;4860281;29;41696;-74
2024/03/11 04:19:08;;;;;;;1.40;1.30;;;;;;;9.05;95.69;97307.56;4875725;29;41752;-75
2024/03/11 04:21:37;;;;;;;1.30;1.20;;;;;;;9.04;95.61;97313.81;4860158;29;39012;-75
2024/03/11 04:24:06;;;;;;;1.23;1.10;;;;;;;9.03;95.43;97310.31;4875180;29;44334;-74
2024/03/11 04:26:35;;;;;;;1.20;1.10;;;;;;;9.03;95.00;97315.59;4860022;29;43116;-74
2024/03/11 04:29:05;;;;;;;1.00;1.00;;;;;;;9.02;95.44;97313.13;4859946;29;41166;-74
2024/03/11 04:31:34;;;;;;;1.20;1.10;;;;;;;8.99;94.79;97328.25;4876567;29;39720;-74
2024/03/11 04:34:01;;;;;;;1.30;1.20;;;;;;;8.95;94.51;97310.97;4876988;29;41707;-75
2024/03/11 04:36:30;;;;;;;1.10;1.00;;;;;;;9.00;94.70;97322.00;4860631;29;44131;-75
2024/03/11 04:38:57;;;;;;;1.07;0.97;;;;;;;9.02;94.54;97321.03;4860654;29;41662;-75
2024/03/11 04:41:25;;;;;;;1.10;1.00;;;;;;;8.96;93.80;97320.56;4877410;29;39668;-74
2024/03/11 04:43:54;;;;;;;1.20;1.10;;;;;;;9.05;93.59;97324.25;4875763;29;42753;-74
2024/03/11 04:46:21;;;;;;;1.23;0.90;;;;;;;9.06;93.53;97325.09;4876267;29;43654;-74
2024/03/11 04:48:48;;;;;;;1.00;0.90;;;;;;;9.15;92.96;97345.50;4874983;29;42574;-74
2024/03/11 04:51:16;;;;;;;2.07;0.97;;;;;;;9.15;92.85;97343.66;4859246;29;42273;-74
2024/03/11 04:53:44;;;;;;;0.87;0.87;;;;;;;9.15;93.22;97350.78;4876342;29;41950;-76
2024/03/11 04:56:11;;;;;;;1.17;1.00;;;;;;;9.12;93.08;97341.28;4858979;29;44184;-75
2024/03/11 04:58:39;;;;;;;1.20;1.10;;;;;;;9.02;93.20;97341.16;4859579;29;43853;-75
2024/03/11 05:01:08;;;;;;;0.97;0.90;;;;;;;9.12;93.19;97351.00;4874946;29;39099;-74
2024/03/11 05:03:35;;;;;;;1.67;0.93;;;;;;;9.12;93.00;97348.38;4876263;29;41709;-75
2024/03/11 05:06:03;;;;;;;1.27;1.03;;;;;;;9.13;92.67;97352.69;4875105;29;43746;-76
2024/03/11 05:08:30;;;;;;;0.83;0.83;;;;;;;9.13;92.93;97352.69;4875198;29;42706;-75
2024/03/11 05:10:58;;;;;;;1.13;0.97;;;;;;;9.10;92.65;97348.50;4874932;29;40168;-74
2024/03/11 05:13:25;;;;;;;0.70;0.70;;;;;;;9.04;93.19;97348.97;4859199;29;43953;-76
2024/03/11 05:15:53;;;;;;;1.23;1.13;;;;;;;8.93;93.04;97341.91;4874927;29;42607;-75
2024/03/11 05:18:22;;;;;;;1.60;1.20;;;;;;;8.79;93.29;97346.63;4875095;29;42043;-75
2024/03/11 05:20:49;;;;;;;1.20;1.10;;;;;;;8.68;93.65;97344.81;4874811;29;40052;-75
2024/03/11 05:23:17;;;;;;;2.90;1.10;;;;;;;8.53;93.42;97338.94;4874946;29;41776;-74
2024/03/11 05:25:45;;;;;;;1.00;1.00;;;;;;;8.41;93.45;97339.06;4875763;29;43491;-75
2024/03/11 05:28:13;;;;;;;1.53;1.00;;;;;;;8.40;93.24;97353.25;4874767;29;42657;-75
2024/03/11 05:30:40;;;;;;;1.00;0.90;;;;;;;8.24;93.78;97354.38;4875095;29;39742;-74
2024/03/11 05:33:08;;;;;;;1.43;0.90;;;;;;;8.26;93.62;97370.94;4875587;29;43082;-74
2024/03/11 05:35:37;;;;;;;1.37;1.20;;;;;;;8.21;94.00;97370.44;4876675;29;42948;-74
2024/03/11 05:38:04;;;;;;;1.27;1.00;;;;;;;8.02;93.92;97354.34;4875379;29;42216;-75
2024/03/11 05:40:32;;;;;;;1.07;1.07;;;;;;;8.14;94.21;97385.06;4874953;29;40874;-75
2024/03/11 05:43:00;;;;;;;1.03;0.90;;;;;;;8.09;95.02;97379.28;4876517;29;42798;-74
2024/03/11 05:45:27;;;;;;;0.80;0.80;;;;;;;8.02;95.21;97379.88;4861027;29;42886;-76
2024/03/11 05:47:55;;;;;;;0.70;0.70;;;;;;;8.06;95.27;97392.69;4878631;29;43307;-76
2024/03/11 05:50:22;;;;;;;2.03;0.80;;;;;;;8.02;95.08;97391.25;4862440;29;39979;-74
2024/03/11 05:52:51;;;;;;;0.87;0.80;;;;;;;8.10;95.24;97403.84;4862995;29;43999;-76
2024/03/11 05:55:21;;;;;;;0.93;0.70;;;;;;;8.13;94.58;97424.72;4879080;29;43945;-75
2024/03/11 05:57:49;;;;;;;1.23;0.83;;;;;;;8.12;95.04;97429.16;4877700;29;42903;-74
2024/03/11 06:00:17;;;;;;;0.70;0.70;;;;;;;8.13;94.50;97433.47;4876270;29;40023;-76
2024/03/11 06:02:45;;;;;;;0.83;0.83;;;;;;;8.02;94.19;97417.63;4877119;29;42113;-74
2024/03/11 06:05:12;;;;;;;1.70;1.03;;;;;;;8.15;94.24;97439.47;4877183;29;42691;-75
2024/03/11 06:07:40;;;;;;;2.13;0.93;;;;;;;8.19;94.50;97440.06;4876972;29;41791;-74
2024/03/11 06:10:10;;;;;;;0.70;0.70;;;;;;;8.27;94.05;97449.09;4876921;29;41326;-76
2024/03/11 06:12:37;;;;;;;1.53;1.00;;;;;;;8.36;93.79;97446.75;4876754;29;42138;-75
2024/03/11 06:15:06;;;;;;;0.73;0.73;;;;;;;8.50;92.87;97446.53;4876883;29;42992;-74
2024/03/11 06:17:33;;;;;;;2.47;0.80;;;;;;;8.68;92.70;97463.56;4861370;29;42485;-76
2024/03/11 06:20:03;;;;;;;0.90;0.90;;;;;;;8.81;92.23;97464.31;4877172;29;41045;-77
2024/03/11 06:22:31;;;;;;;1.20;1.10;;;;;;;8.94;91.92;97469.47;4876714;29;40301;-75
2024/03/11 06:24:59;;;;;;;1.10;1.03;;;;;;;9.02;91.13;97473.19;4876778;29;42645;-74
2024/03/11 06:27:28;;;;;;;1.30;1.10;;;;;;;9.05;90.94;97473.91;4877595;29;42760;-75
2024/03/11 06:29:56;;;;;;;1.40;1.30;;;;;;;9.06;90.48;97479.09;4861644;29;42420;-74
2024/03/11 06:32:30;;;;;;;1.53;1.43;;;;;;;9.00;90.63;97463.72;4877503;29;42499;-76
2024/03/11 06:34:58;;;;;;;1.30;1.20;;;;;;;9.08;90.36;97487.72;4876267;29;43882;-76
2024/03/11 06:37:25;;;;;;;1.67;1.30;;;;;;;9.16;90.72;97481.84;4862079;29;41276;-75
2024/03/11 06:39:52;;;;;;;1.90;1.80;;;;;;;9.31;90.66;97496.47;4877708;29;40483;-74
2024/03/11 06:42:20;;;;;;;3.10;2.30;;;;;;;9.53;90.49;97501.72;4878844;29;41826;-75
2024/03/11 06:44:49;;;;;;;2.63;2.43;;;;;;;9.75;90.14;97500.03;4878892;29;42654;-75
2024/03/11 06:47:16;;;;;;;3.43;2.07;;;;;;;9.93;89.26;97491.44;4877411;29;42776;-75
2024/03/11 06:49:43;;;;;;;2.40;1.80;;;;;;;10.17;88.39;97496.50;4877697;29;40098;-74
2024/03/11 06:52:11;;;;;;;2.47;2.27;;;;;;;10.37;87.61;97501.03;4877291;29;42109;-76
2024/03/11 06:54:38;;;;;;;2.40;2.00;;;;;;;10.50;87.30;97492.91;4877059;29;42816;-75
2024/03/11 06:57:06;;;;;;;2.10;2.00;;;;;;;10.74;86.54;97501.44;4860591;29;42494;-74
2024/03/11 06:59:33;;;;;;;3.03;1.83;;;;;;;11.03;85.53;97504.22;4860782;29;41268;-75
2024/03/11 07:02:02;;;;;;;1.87;1.77;;;;;;;11.23;83.26;97509.66;4860495;29;42014;-74
2024/03/11 07:04:31;;;;;;;1.97;1.77;;;;;;;11.03;82.32;97509.53;4876438;29;42988;-75
2024/03/11 07:06:59;;;;;;;1.93;1.70;;;;;;;10.86;82.89;97501.38;4876394;29;41553;-74
2024/03/11 07:09:27;;;;;;;1.50;1.40;;;;;;;10.80;83.60;97513.31;4860667;29;38631;-75
2024/03/11 07:11:55;;;;;;;2.03;1.60;;;;;;;10.69;83.44;97489.53;4873456;29;42610;-77
2024/03/11 07:14:23;;;;;;;1.50;1.40;;;;;;;11.23;82.72;97520.25;4876274;29;44005;-75
2024/03/11 07:16:53;;;;;;;2.63;1.80;;;;;;;11.46;81.95;97527.03;4875840;29;41874;-76
2024/03/11 07:19:25;;;;;;;1.67;1.57;;;;;;;13.76;77.27;97546.53;4875782;29;41155;-77
2024/03/11 07:21:53;;;;;;;2.23;1.60;;;;;;;13.83;71.05;97563.59;4859108;29;40594;-76
2024/03/11 07:24:20;;;;;;;1.83;1.50;;;;;;;13.47;71.36;97559.13;4853818;29;41811;-77
2024/03/11 07:26:47;;;;;;;2.00;1.73;;;;;;;13.11;71.14;97566.88;4876155;29;42371;-75
2024/03/11 07:29:15;;;;;;;1.57;1.47;;;;;;;12.88;72.56;97563.69;4860757;29;39704;-75
2024/03/11 07:31:43;;;;;;;1.40;1.30;;;;;;;12.74;72.35;97574.75;4861788;29;40597;-74
2024/03/11 07:34:11;;;;;;;2.43;1.33;;;;;;;12.84;73.17;97569.44;4876889;29;44043;-74
2024/03/11 07:36:39;;;;;;;1.67;1.57;;;;;;;13.14;72.57;97581.69;4878097;29;42314;-75
2024/03/11 07:39:10;;;;;;;1.60;1.50;;;;;;;13.42;70.20;97559.56;4860909;29;41866;-75
2024/03/11 07:41:37;;;;;;;1.50;1.40;;;;;;;13.91;69.28;97587.63;4876233;29;42107;-75
2024/03/11 07:44:06;;;;;;;1.90;1.33;;;;;;;13.66;67.80;97589.13;4860834;29;42713;-75
2024/03/11 07:46:34;;;;;;;1.93;1.50;;;;;;;14.04;68.16;97597.94;4876466;29;42780;-76
2024/03/11 07:49:01;;;;;;;3.03;1.50;;;;;;;14.16;66.10;97587.91;4877787;29;40041;-76
2024/03/11 07:51:29;;;;;;;2.87;1.40;;;;;;;13.93;65.58;97612.28;4876254;29;42765;-74
2024/03/11 07:53:58;;;;;;;2.30;1.30;;;;;;;13.77;67.03;97595.25;4860506;29;42018;-76
2024/03/11 07:56:25;;;;;;;2.33;1.30;;;;;;;14.12;65.59;97615.81;4877201;29;42305;-76
2024/03/11 07:58:53;;;;;;;3.13;1.27;;;;;;;14.68;64.24;97634.31;4875924;29;40218;-77
2024/03/11 08:01:21;;;;;;;1.40;1.30;;;;;;;14.69;63.02;97647.47;4874900;29;41776;-76
2024/03/11 08:03:48;;;;;;;1.53;1.30;;;;;;;14.31;63.67;97642.34;4875191;29;44713;-76
2024/03/11 08:06:18;;;;;;;1.87;1.33;;;;;;;14.02;63.50;97648.66;4875214;29;43047;-76
2024/03/11 08:08:46;;;;;;;1.77;1.23;;;;;;;13.86;63.74;97645.78;4875399;29;40640;-76
2024/03/11 08:11:14;;;;;;;1.30;1.20;;;;;;;14.32;63.79;97649.38;4875433;29;40394;-76
2024/03/11 08:13:42;;;;;;;1.60;1.20;;;;;;;15.24;60.71;97671.28;4856458;29;43869;-76
2024/03/11 08:16:11;;;;;;;1.30;1.20;;;;;;;15.21;60.73;97674.25;4858022;29;42372;-76
2024/03/11 08:18:42;;;;;;;1.83;1.30;;;;;;;16.11;58.15;97683.75;4875666;29;40321;-77
2024/03/11 08:21:10;;;;;;;2.50;1.00;;;;;;;17.17;55.53;97693.84;4860203;29;43141;-76
2024/03/11 08:23:40;;;;;;;1.93;1.20;;;;;;;18.55;52.86;97687.44;4859270;29;43546;-76
2024/03/11 08:26:08;;;;;;;1.33;1.00;;;;;;;20.37;47.45;97721.53;4876972;29;42723;-76
2024/03/11 08:28:38;;;;;;;1.40;1.20;;;;;;;21.69;44.43;97747.34;4875126;29;40140;-75
2024/03/11 08:31:07;;;;;;;1.53;0.90;;;;;;;22.10;43.08;97734.03;4875637;29;40199;-76
2024/03/11 08:33:35;;;;;;;1.50;0.90;;;;;;;23.09;39.07;97753.53;4859916;29;43490;-77
2024/03/11 08:36:04;;;;;;;1.20;0.90;;;;;;;22.98;39.15;97752.25;4875699;29;42362;-76
2024/03/11 08:38:35;;;;;;;1.10;0.90;;;;;;;23.15;39.73;97753.53;4876914;29;20238;-79
2024/03/11 08:41:05;;;;;;;1.50;0.70;;;;;;;23.51;40.79;97730.81;4875472;29;42303;-77
2024/03/11 08:43:32;;;;;;;0.90;0.90;;;;;;;25.42;37.45;97763.03;4875718;29;43903;-76
2024/03/11 08:46:02;;;;;;;0.70;0.70;;;;;;;26.90;35.07;97776.91;4875897;29;42366;-77
2024/03/11 08:48:30;;;;;;;1.10;0.90;;;;;;;28.24;32.28;97799.22;4874868;29;40962;-77
2024/03/11 08:50:58;;;;;;;0.50;0.43;;;;;;;29.54;30.33;97798.94;4876418;29;41763;-74
2024/03/11 08:53:27;;;;;;;0.55;0.55;;;;;;;31.17;27.83;97809.88;4876105;29;43764;-74
2024/03/11 08:55:56;;;;;;;1.88;0.60;;;;;;;32.41;25.40;97832.69;4876062;29;42245;-74
2024/03/11 08:58:24;;;;;;;0.73;0.60;;;;;;;32.68;24.94;97827.16;4874710;29;41584;-76
2024/03/11 09:00:52;;;;;;;0.60;0.40;;;;;;;31.73;25.23;97817.75;4874782;29;42194;-74
2024/03/11 09:03:21;;;;;;;1.13;0.60;;;;;;;31.21;25.20;97838.41;4874119;29;42723;-77
2024/03/11 09:05:49;;;;;;;1.17;0.68;;;;;;;30.40;24.93;97837.09;4874805;29;41697;-75
2024/03/11 09:08:17;;;;;;;0.80;0.57;;;;;;;29.83;26.40;97834.41;4875112;29;40272;-75
2024/03/11 09:10:45;;;;;;;0.45;0.38;;;;;;;29.02;26.57;97816.34;4858477;29;42335;-76
2024/03/11 09:13:13;;;;;;;0.70;0.70;;;;;;;28.04;28.09;97831.34;4875101;29;43709;-76
2024/03/11 09:15:44;;;;;;;0.75;0.75;;;;;;;28.93;27.76;97841.22;4875287;29;43206;-76
2024/03/11 09:18:11;;;;;;;0.75;0.70;;;;;;;28.93;26.53;97843.94;4873722;29;40542;-77
2024/03/11 09:20:40;;;;;;;0.63;0.63;;;;;;;29.04;27.46;97838.75;4876858;29;41803;-75
2024/03/11 09:23:08;;;;;;;1.27;0.75;;;;;;;28.34;27.31;97850.38;4878138;29;43090;-76
2024/03/11 09:25:36;;;;;;;0.75;0.75;;;;;;;28.85;26.85;97857.09;4876770;29;42874;-76
2024/03/11 09:28:04;;;;;;;1.02;0.60;;;;;;;31.39;25.78;97862.75;4877048;29;40191;-76
2024/03/11 09:30:33;;;;;;;0.60;0.45;;;;;;;33.44;23.90;97868.03;4878929;29;42764;-77
2024/03/11 09:33:01;;;;;;;1.00;0.50;;;;;;;34.09;23.24;97875.72;4877357;29;44667;-76
2024/03/11 09:35:28;;;;;;;0.60;0.60;;;;;;;33.59;22.44;97881.84;4861961;29;42446;-77
2024/03/11 09:37:57;;;;;;;1.00;0.85;;;;;;;32.40;24.06;97874.06;4878195;29;39143;-75
2024/03/11 09:40:26;;;;;;;1.23;0.55;;;;;;;31.36;23.79;97875.00;4862252;29;41106;-75
2024/03/11 09:42:55;;;;;;;0.60;0.60;;;;;;;29.61;25.89;97867.00;4877764;29;43127;-77
2024/03/11 09:45:26;;;;;;;0.68;0.68;;;;;;;28.30;26.53;97864.72;4862056;29;44000;-75
2024/03/11 09:47:55;;;;;;;0.77;0.70;;;;;;;27.81;27.34;97855.75;4862670;29;40986;-76
2024/03/11 09:50:27;;;;;;;0.60;0.60;;;;;;;27.20;27.96;97853.94;4879102;29;42836;-78
2024/03/11 09:52:58;;;;;;;1.23;0.88;;;;;;;27.87;28.54;97850.22;4877569;29;43023;-75
2024/03/11 09:55:28;;;;;;;0.77;0.70;;;;;;;27.95;27.57;97851.75;4877501;29;43993;-76
2024/03/11 09:57:59;;;;;;;1.23;0.70;;;;;;;28.34;27.35;97869.44;4875481;29;41315;-77
2024/03/11 10:00:27;;;;;;;0.70;0.70;;;;;;;27.81;27.41;97834.81;4875599;29;42531;-77
2024/03/11 10:02:59;;;;;;;1.50;0.93;;;;;;;28.02;28.19;97868.00;4876612;29;43431;-77
2024/03/11 10:05:30;;;;;;;0.80;0.70;;;;;;;27.47;27.68;97884.38;4861645;29;42360;-77
2024/03/11 10:08:04;;;;;;;0.93;0.50;;;;;;;26.67;29.09;97869.94;4861671;29;39449;-75
2024/03/11 10:10:32;;;;;;;0.80;0.80;;;;;;;25.66;29.36;97859.09;4861394;29;42122;-75
2024/03/11 10:13:00;;;;;;;0.87;0.60;;;;;;;26.34;29.21;97867.47;4876741;29;43664;-76
2024/03/11 10:15:30;;;;;;;0.80;0.80;;;;;;;25.15;30.21;97859.03;4877918;29;43184;-75
2024/03/11 10:18:01;;;;;;;0.57;0.57;;;;;;;24.44;30.88;97862.44;4876746;29;40341;-77
2024/03/11 10:20:34;;;;;;;0.67;0.67;;;;;;;23.51;31.29;97852.44;4860886;29;42842;-76
2024/03/11 10:23:07;;;;;;;0.93;0.73;;;;;;;23.73;32.61;97837.75;4875754;29;43193;-77
2024/03/11 10:25:34;;;;;;;1.17;0.67;;;;;;;24.25;31.23;97844.31;4878118;29;43097;-78
2024/03/11 10:28:04;;;;;;;0.90;0.60;;;;;;;24.29;30.70;97840.16;4876908;29;40947;-77
2024/03/11 10:30:32;;;;;;;1.20;0.60;;;;;;;24.42;30.25;97859.09;4877183;29;42271;-76
2024/03/11 10:33:01;;;;;;;1.43;0.73;;;;;;;25.76;29.59;97859.44;4876286;29;43609;-76
2024/03/11 10:35:33;;;;;;;0.70;0.60;;;;;;;25.02;29.63;97860.72;4877627;29;43753;-77
2024/03/11 10:38:10;;;;;;;1.10;0.77;;;;;;;23.81;30.78;97850.25;4876585;29;41936;-75
2024/03/11 10:40:39;;;;;;;0.87;0.87;;;;;;;22.72;32.24;97843.84;4877679;29;41622;-78
2024/03/11 10:43:20;;;;;;;2.83;0.90;;;;;;;23.05;33.13;97838.69;4877220;29;42608;-76
2024/03/11 10:45:48;;;;;;;0.60;0.60;;;;;;;23.02;32.80;97829.09;4875000;29;42303;-77
2024/03/11 10:48:16;;;;;;;0.60;0.60;;;;;;;23.58;32.45;97835.22;4877457;29;39948;-78
2024/03/11 10:50:43;;;;;;;0.93;0.77;;;;;;;25.23;30.54;97837.94;4878822;29;42325;-77
2024/03/11 10:53:21;;;;;;;0.73;0.73;;;;;;;24.73;30.47;97860.34;4861438;29;42025;-77
2024/03/11 10:55:55;;;;;;;0.60;0.60;;;;;;;23.88;31.42;97857.31;4874486;29;42246;-76
2024/03/11 10:58:25;;;;;;;1.23;0.70;;;;;;;23.05;32.51;97844.91;4877069;29;40268;-78
2024/03/11 11:00:55;;;;;;;0.50;0.50;;;;;;;22.45;33.18;97829.34;4861480;29;40552;-74
2024/03/11 11:03:23;;;;;;;1.10;0.70;;;;;;;21.92;33.75;97836.09;4861299;29;41508;-77
2024/03/11 11:05:56;;;;;;;1.57;0.90;;;;;;;21.80;33.90;97841.16;4876670;29;42260;-76
2024/03/11 11:08:29;;;;;;;1.27;0.60;;;;;;;21.49;34.58;97836.06;4875598;29;40971;-75
2024/03/11 11:10:58;;;;;;;0.70;0.70;;;;;;;21.14;34.74;97827.72;4860836;29;43006;-76
2024/03/11 11:13:29;;;;;;;1.00;0.80;;;;;;;24.34;32.46;97829.56;4875865;29;43763;-75
2024/03/11 11:15:58;;;;;;;1.10;0.87;;;;;;;27.09;29.81;97846.53;4877485;29;42558;-76
2024/03/11 11:18:27;;;;;;;0.90;0.60;;;;;;;30.35;27.20;97846.88;4876023;29;41286;-78
2024/03/11 11:20:56;;;;;;;1.65;0.88;;;;;;;32.10;24.25;97856.22;4877329;29;42371;-75
2024/03/11 11:23:27;;;;;;;0.60;0.60;;;;;;;33.86;21.78;97881.69;4875785;29;43760;-78
2024/03/11 11:25:56;;;;;;;1.75;0.70;;;;;;;33.94;21.68;97885.84;4860663;29;41534;-77
2024/03/11 11:28:28;;;;;;;0.57;0.50;;;;;;;32.76;22.66;97872.50;4860297;29;42033;-77
2024/03/11 11:31:11;;;;;;;0.70;0.60;;;;;;;31.50;23.25;97880.94;4876360;29;41889;-76
2024/03/11 11:33:53;;;;;;;2.10;0.40;;;;;;;33.75;21.18;97880.84;4876509;29;43672;-76
2024/03/11 11:37:01;;;;;;;1.48;0.40;;;;;;;36.07;20.05;97882.97;4874121;29;42551;-76
2024/03/11 11:39:34;;;;;;;1.02;0.52;;;;;;;36.59;19.71;97879.66;4876215;29;39207;-77
2024/03/11 11:42:02;;;;;;;0.82;0.52;;;;;;;36.14;18.72;97897.25;4876775;29;42513;-77
2024/03/11 11:44:46;;;;;;;0.75;0.47;;;;;;;34.90;19.42;97886.84;4876136;29;43791;-76